createdAt,value
2018-06-17T00:00:53.332Z,77.50
2018-06-17T00:03:21.830Z,76.70
2018-06-17T00:05:50.332Z,76.80
2018-06-17T00:08:18.791Z,76.30
2018-06-17T00:10:47.286Z,76.40
2018-06-17T00:13:15.879Z,76.60
2018-06-17T00:15:44.377Z,76.50
2018-06-17T00:18:13.096Z,76.10
2018-06-17T00:20:41.901Z,76.20
2018-06-17T00:23:10.464Z,76.50
2018-06-17T00:25:38.942Z,76.90
2018-06-17T00:28:07.789Z,75.90
2018-06-17T00:30:36.287Z,76.40
2018-06-17T00:33:04.868Z,76.50
2018-06-17T00:35:33.648Z,76.20
2018-06-17T00:38:02.217Z,75.90
2018-06-17T00:42:59.060Z,76.10
2018-06-17T00:45:27.544Z,76.00
2018-06-17T00:47:56.062Z,75.90
2018-06-17T00:50:24.602Z,76.00
2018-06-17T00:52:53.682Z,75.80
2018-06-17T00:55:22.401Z,75.70
2018-06-17T01:00:22.188Z,75.60
2018-06-17T01:02:51.410Z,75.40
2018-06-17T01:05:20.009Z,75.80
2018-06-17T01:07:48.722Z,75.80
2018-06-17T01:10:17.979Z,75.70
2018-06-17T01:12:46.614Z,75.40
2018-06-17T01:15:15.504Z,75.10
2018-06-17T01:17:44.224Z,75.10
2018-06-17T01:20:13.245Z,74.90
2018-06-17T01:22:41.946Z,74.70
2018-06-17T01:25:10.525Z,74.30
2018-06-17T01:27:39.093Z,74.80
2018-06-17T01:30:07.766Z,74.10
2018-06-17T01:32:36.741Z,74.50
2018-06-17T01:35:05.429Z,73.80
2018-06-17T01:37:34.189Z,73.60
2018-06-17T01:40:02.836Z,72.70
2018-06-17T01:42:31.560Z,72.60
2018-06-17T01:45:00.118Z,71.80
2018-06-17T01:47:28.699Z,71.70
2018-06-17T01:49:57.436Z,71.20
2018-06-17T01:52:26.341Z,70.60
2018-06-17T01:54:55.106Z,70.30
2018-06-17T01:57:23.813Z,71.10
2018-06-17T01:59:52.630Z,70.40
2018-06-17T02:02:21.502Z,69.80
2018-06-17T02:04:56.932Z,69.80
2018-06-17T02:07:31.099Z,69.80
2018-06-17T02:10:05.242Z,69.80
2018-06-17T02:12:33.937Z,70.30
2018-06-17T02:15:02.851Z,70.00
2018-06-17T02:17:31.349Z,69.20
2018-06-17T02:20:00.307Z,69.30
2018-06-17T02:22:28.901Z,69.00
2018-06-17T02:24:57.583Z,70.20
2018-06-17T02:27:26.111Z,70.00
2018-06-17T02:29:55.467Z,70.00
2018-06-17T02:32:24.146Z,69.60
2018-06-17T02:34:52.921Z,69.40
2018-06-17T02:37:21.687Z,69.60
2018-06-17T02:39:50.512Z,69.10
2018-06-17T02:42:19.176Z,68.80
2018-06-17T02:44:53.050Z,69.10
2018-06-17T02:47:26.944Z,69.50
2018-06-17T02:49:59.600Z,69.30
2018-06-17T02:52:33.966Z,69.60
2018-06-17T02:55:03.253Z,69.80
2018-06-17T02:57:33.128Z,69.50
2018-06-17T03:04:59.294Z,70.90
2018-06-17T03:07:28.133Z,71.00
2018-06-17T03:09:57.918Z,71.00
2018-06-17T03:12:26.441Z,71.50
2018-06-17T03:14:54.970Z,71.20
2018-06-17T03:17:24.525Z,70.90
2018-06-17T03:19:53.265Z,71.70
2018-06-17T03:22:23.141Z,70.90
2018-06-17T03:24:56.936Z,70.60
2018-06-17T03:27:30.905Z,70.90
2018-06-17T03:30:05.478Z,70.30
2018-06-17T03:32:39.645Z,70.80
2018-06-17T03:35:14.366Z,71.00
2018-06-17T03:37:43.811Z,70.40
2018-06-17T03:40:12.507Z,70.50
2018-06-17T03:42:41.381Z,70.60
2018-06-17T03:45:11.234Z,70.40
2018-06-17T03:47:39.695Z,71.20
2018-06-17T03:50:08.662Z,71.80
2018-06-17T03:52:37.207Z,71.30
2018-06-17T03:55:05.788Z,70.60
2018-06-17T03:57:34.702Z,71.10
2018-06-17T04:00:03.203Z,70.70
2018-06-17T04:02:33.987Z,71.00
2018-06-17T04:07:36.956Z,71.40
2018-06-17T04:10:05.492Z,70.60
2018-06-17T04:12:34.525Z,70.80
2018-06-17T04:15:03.027Z,71.00
2018-06-17T04:17:31.758Z,71.00
2018-06-17T04:20:00.233Z,71.10
2018-06-17T04:22:28.779Z,71.20
2018-06-17T04:24:57.360Z,71.30
2018-06-17T04:27:26.030Z,70.90
2018-06-17T04:29:54.563Z,70.90
2018-06-17T04:32:23.162Z,71.40
2018-06-17T04:34:52.151Z,70.90
2018-06-17T04:37:20.604Z,71.10
2018-06-17T04:39:49.137Z,70.90
2018-06-17T04:42:17.655Z,71.20
2018-06-17T04:44:46.208Z,70.90
2018-06-17T04:47:14.653Z,71.00
2018-06-17T04:49:43.154Z,71.10
2018-06-17T04:52:11.751Z,71.10
2018-06-17T04:54:40.335Z,71.20
2018-06-17T04:57:08.924Z,71.00
2018-06-17T04:59:37.446Z,70.80
2018-06-17T05:02:06.306Z,70.70
2018-06-17T05:04:34.763Z,71.50
2018-06-17T05:07:03.780Z,70.90
2018-06-17T05:12:00.391Z,70.90
2018-06-17T05:14:28.878Z,70.00
2018-06-17T05:16:57.387Z,69.90
2018-06-17T05:19:25.800Z,69.60
2018-06-17T05:21:54.433Z,69.70
2018-06-17T05:24:22.948Z,68.90
2018-06-17T05:29:19.510Z,69.30
2018-06-17T05:31:47.924Z,69.90
2018-06-17T05:34:16.624Z,70.10
2018-06-17T05:36:45.131Z,69.50
2018-06-17T05:39:14.248Z,69.20
2018-06-17T05:41:42.833Z,69.60
2018-06-17T05:44:11.416Z,69.20
2018-06-17T05:46:39.892Z,68.70
2018-06-17T05:49:08.410Z,68.30
2018-06-17T05:51:36.924Z,68.60
2018-06-17T05:54:05.598Z,68.20
2018-06-17T05:56:34.212Z,68.40
2018-06-17T05:59:02.851Z,67.90
2018-06-17T06:01:31.466Z,66.90
2018-06-17T06:04:00.318Z,67.70
2018-06-17T06:06:29.047Z,68.30
2018-06-17T06:08:57.622Z,67.70
2018-06-17T06:11:26.155Z,67.60
2018-06-17T06:13:54.851Z,66.20
2018-06-17T06:16:23.529Z,67.50
2018-06-17T06:18:52.030Z,67.50
2018-06-17T06:21:20.535Z,66.40
2018-06-17T06:26:18.063Z,67.70
2018-06-17T06:28:48.063Z,66.60
2018-06-17T06:31:17.219Z,66.80
2018-06-17T06:33:46.756Z,65.80
2018-06-17T06:36:16.305Z,65.70
2018-06-17T06:38:44.872Z,66.60
2018-06-17T06:41:14.061Z,65.10
2018-06-17T06:43:44.148Z,64.80
2018-06-17T06:48:42.084Z,64.80
2018-06-17T06:51:11.396Z,64.20
2018-06-17T06:53:40.636Z,63.30
2018-06-17T06:56:09.985Z,64.30
2018-06-17T06:58:38.967Z,64.80
2018-06-17T07:01:07.725Z,64.80
2018-06-17T07:03:47.572Z,64.10
2018-06-17T07:06:27.486Z,62.30
2018-06-17T07:09:07.237Z,62.10
2018-06-17T07:11:35.660Z,61.10
2018-06-17T07:14:04.328Z,61.60
2018-06-17T07:16:44.262Z,61.60
2018-06-17T07:19:12.825Z,62.90
2018-06-17T07:21:41.268Z,61.20
2018-06-17T07:24:10.297Z,60.70
2018-06-17T07:26:51.981Z,62.20
2018-06-17T07:29:34.097Z,61.10
2018-06-17T07:32:03.404Z,60.80
2018-06-17T07:37:01.875Z,61.50
2018-06-17T07:41:41.409Z,60.60
2018-06-17T07:44:10.750Z,60.50
2018-06-17T07:46:40.187Z,60.60
2018-06-17T07:49:31.509Z,60.40
2018-06-17T07:52:12.753Z,60.00
2018-06-17T07:57:12.525Z,60.10
2018-06-17T07:59:41.633Z,59.90
2018-06-17T08:02:11.500Z,60.00
2018-06-17T08:04:40.725Z,60.10
2018-06-17T08:07:09.940Z,59.60
2018-06-17T08:09:38.904Z,59.20
2018-06-17T08:12:09.248Z,59.10
2018-06-17T08:14:38.629Z,59.20
2018-06-17T08:17:07.455Z,58.90
2018-06-17T08:19:36.748Z,58.80
2018-06-17T08:22:05.785Z,57.60
2018-06-17T08:24:35.630Z,56.60
2018-06-17T08:27:04.950Z,57.50
2018-06-17T08:29:34.173Z,57.00
2018-06-17T08:32:03.190Z,57.20
2018-06-17T08:34:32.013Z,57.30
2018-06-17T08:37:00.645Z,58.20
2018-06-17T08:39:29.154Z,57.70
2018-06-17T08:41:57.610Z,58.50
2018-06-17T08:44:26.340Z,58.10
2018-06-17T08:46:55.038Z,58.40
2018-06-17T08:49:23.534Z,58.50
2018-06-17T08:51:52.002Z,58.00
2018-06-17T08:54:20.543Z,56.60
2018-06-17T08:56:49.123Z,56.10
2018-06-17T08:59:17.532Z,55.30
2018-06-17T09:01:46.393Z,55.70
2018-06-17T09:04:14.846Z,56.50
2018-06-17T09:06:43.437Z,56.70
2018-06-17T09:09:12.777Z,57.50
2018-06-17T09:11:41.235Z,58.10
2018-06-17T09:14:09.720Z,58.30
2018-06-17T09:16:38.140Z,57.10
2018-06-17T09:19:06.906Z,57.80
2018-06-17T09:21:35.606Z,57.30
2018-06-17T09:24:04.305Z,58.00
2018-06-17T09:26:32.790Z,58.10
2018-06-17T09:29:01.811Z,57.80
2018-06-17T09:31:30.454Z,57.30
2018-06-17T09:33:58.930Z,57.20
2018-06-17T09:36:27.449Z,56.40
2018-06-17T09:38:56.158Z,55.20
2018-06-17T09:41:24.890Z,55.30
2018-06-17T09:43:54.298Z,55.90
2018-06-17T09:46:23.049Z,55.70
2018-06-17T09:48:51.997Z,56.30
2018-06-17T09:51:20.864Z,56.10
2018-06-17T09:53:50.142Z,56.40
2018-06-17T09:56:19.053Z,55.70
2018-06-17T09:58:48.010Z,55.50
2018-06-17T10:01:16.948Z,55.70
2018-06-17T10:03:45.873Z,56.10
2018-06-17T10:06:14.694Z,56.30
2018-06-17T10:08:43.540Z,57.60
2018-06-17T10:13:45.545Z,55.80
2018-06-17T10:16:16.808Z,55.00
2018-06-17T10:18:47.584Z,55.30
2018-06-17T10:21:17.832Z,54.90
2018-06-17T10:23:47.492Z,55.40
2018-06-17T10:26:18.432Z,56.10
2018-06-17T10:28:48.002Z,55.00
2018-06-17T10:31:16.920Z,55.50
2018-06-17T10:33:45.973Z,56.40
2018-06-17T10:36:14.500Z,55.50
2018-06-17T10:38:43.034Z,55.90
2018-06-17T10:41:11.567Z,56.40
2018-06-17T10:43:41.193Z,56.40
2018-06-17T10:46:09.802Z,56.80
2018-06-17T10:48:38.341Z,57.10
2018-06-17T10:51:06.943Z,57.00
2018-06-17T10:53:35.396Z,56.60
2018-06-17T10:56:04.017Z,57.30
2018-06-17T10:58:32.447Z,56.60
2018-06-17T11:01:00.973Z,56.00
2018-06-17T11:03:29.434Z,56.20
2018-06-17T11:05:58.202Z,56.00
2018-06-17T11:08:27.007Z,56.00
2018-06-17T11:10:55.547Z,56.30
2018-06-17T11:13:24.089Z,56.30
2018-06-17T11:15:52.574Z,56.20
2018-06-17T11:18:21.332Z,56.20
2018-06-17T11:20:49.847Z,57.00
2018-06-17T11:23:18.723Z,56.70
2018-06-17T11:25:47.247Z,56.10
2018-06-17T11:28:15.941Z,56.50
2018-06-17T11:30:44.504Z,56.00
2018-06-17T11:33:13.194Z,55.80
2018-06-17T11:38:11.040Z,55.40
2018-06-17T11:40:40.213Z,56.10
2018-06-17T11:43:09.601Z,55.20
2018-06-17T11:45:38.618Z,55.60
2018-06-17T11:48:07.672Z,56.60
2018-06-17T11:50:37.138Z,55.10
2018-06-17T11:53:06.580Z,55.30
2018-06-17T11:55:35.599Z,55.30
2018-06-17T11:58:04.194Z,55.70
2018-06-17T12:00:32.804Z,55.80
2018-06-17T12:03:01.572Z,54.70
2018-06-17T12:05:31.481Z,54.60
2018-06-17T12:08:00.960Z,54.50
2018-06-17T12:10:31.485Z,55.40
2018-06-17T12:13:00.294Z,56.20
2018-06-17T12:15:29.811Z,55.00
2018-06-17T12:17:58.757Z,56.00
2018-06-17T12:20:28.344Z,54.40
2018-06-17T12:22:56.975Z,54.90
2018-06-17T12:25:25.830Z,54.40
2018-06-17T12:27:55.323Z,54.70
2018-06-17T12:30:24.834Z,53.80
2018-06-17T12:32:53.738Z,53.40
2018-06-17T12:37:52.147Z,52.40
2018-06-17T12:40:21.803Z,53.10
2018-06-17T12:42:51.493Z,52.70
2018-06-17T12:45:21.196Z,51.40
2018-06-17T12:47:50.799Z,52.00
2018-06-17T12:50:20.648Z,50.90
2018-06-17T12:52:50.729Z,51.40
2018-06-17T12:55:20.543Z,51.60
2018-06-17T12:57:50.169Z,52.00
2018-06-17T13:00:20.229Z,52.50
2018-06-17T13:02:50.004Z,52.60
2018-06-17T13:05:20.056Z,52.90
2018-06-17T13:07:50.645Z,52.90
2018-06-17T13:10:20.616Z,51.90
2018-06-17T13:12:50.349Z,51.70
2018-06-17T13:15:20.248Z,51.90
2018-06-17T13:17:49.728Z,51.60
2018-06-17T13:20:19.314Z,51.40
2018-06-17T13:22:48.950Z,51.00
2018-06-17T13:25:18.892Z,50.30
2018-06-17T13:27:49.388Z,50.90
2018-06-17T13:30:18.834Z,52.00
2018-06-17T13:32:48.712Z,51.60
2018-06-17T13:35:17.557Z,52.00
2018-06-17T13:37:46.369Z,50.80
2018-06-17T13:40:15.343Z,50.90
2018-06-17T13:42:44.195Z,50.50
2018-06-17T13:45:13.286Z,50.90
2018-06-17T13:47:41.924Z,51.10
2018-06-17T13:50:11.105Z,49.00
2018-06-17T13:52:39.980Z,49.10
2018-06-17T13:55:09.390Z,48.70
2018-06-17T13:57:38.331Z,49.20
2018-06-17T14:00:07.708Z,48.50
2018-06-17T14:02:37.495Z,48.80
2018-06-17T14:05:06.542Z,48.00
2018-06-17T14:07:35.469Z,48.00
2018-06-17T14:10:04.809Z,48.30
2018-06-17T14:15:01.457Z,48.00
2018-06-17T14:17:30.102Z,48.30
2018-06-17T14:19:58.741Z,49.30
2018-06-17T14:22:27.509Z,49.50
2018-06-17T14:24:56.251Z,49.80
2018-06-17T14:27:25.010Z,48.70
2018-06-17T14:29:54.086Z,49.00
2018-06-17T14:32:23.150Z,49.50
2018-06-17T14:34:52.305Z,48.80
2018-06-17T14:37:21.295Z,49.40
2018-06-17T14:39:50.254Z,48.90
2018-06-17T14:42:24.482Z,49.80
2018-06-17T14:44:58.643Z,47.90
2018-06-17T14:47:32.733Z,48.20
2018-06-17T14:50:06.966Z,48.90
2018-06-17T14:52:41.296Z,47.10
2018-06-17T14:57:39.376Z,46.50
2018-06-17T15:00:08.417Z,46.00
2018-06-17T15:02:37.759Z,46.30
2018-06-17T15:05:06.707Z,46.60
2018-06-17T15:07:35.748Z,47.10
2018-06-17T15:10:05.035Z,47.30
2018-06-17T15:12:34.240Z,48.50
2018-06-17T15:15:03.637Z,47.50
2018-06-17T15:17:32.719Z,47.40
2018-06-17T15:20:01.950Z,47.90
2018-06-17T15:22:30.945Z,47.40
2018-06-17T15:25:00.359Z,46.10
2018-06-17T15:27:29.432Z,46.20
2018-06-17T15:29:58.495Z,45.70
2018-06-17T15:32:32.961Z,46.40
2018-06-17T15:35:07.685Z,47.80
2018-06-17T15:37:42.315Z,46.50
2018-06-17T15:40:11.614Z,46.50
2018-06-17T15:42:41.046Z,47.30
2018-06-17T15:45:10.277Z,48.00
2018-06-17T15:47:40.079Z,48.00
2018-06-17T15:50:09.244Z,46.50
2018-06-17T15:52:38.700Z,47.40
2018-06-17T15:55:07.817Z,48.20
2018-06-17T15:57:36.890Z,46.60
2018-06-17T16:00:06.031Z,47.40
2018-06-17T16:02:34.766Z,46.90
2018-06-17T16:05:03.968Z,47.10
2018-06-17T16:07:33.260Z,46.90
2018-06-17T16:10:03.350Z,46.90
2018-06-17T16:12:37.715Z,46.80
2018-06-17T16:15:11.774Z,46.80
2018-06-17T16:17:46.117Z,46.40
2018-06-17T16:20:20.665Z,46.90
2018-06-17T16:22:49.927Z,46.80
2018-06-17T16:25:19.538Z,46.10
2018-06-17T16:27:48.955Z,46.90
2018-06-17T16:30:18.686Z,46.90
2018-06-17T16:32:48.257Z,47.00
2018-06-17T16:35:17.578Z,47.30
2018-06-17T16:37:46.942Z,47.90
2018-06-17T16:40:16.086Z,48.10
2018-06-17T16:42:45.503Z,48.30
2018-06-17T16:45:14.958Z,48.70
2018-06-17T16:47:44.138Z,48.90
2018-06-17T16:50:13.166Z,48.80
2018-06-17T16:52:47.361Z,49.70
2018-06-17T16:55:21.952Z,49.10
2018-06-17T16:57:56.898Z,49.60
2018-06-17T17:00:26.180Z,49.70
2018-06-17T17:02:55.546Z,49.50
2018-06-17T17:05:24.666Z,49.50
2018-06-17T17:07:54.547Z,48.80
2018-06-17T17:10:23.540Z,49.10
2018-06-17T17:12:52.844Z,49.60
2018-06-17T17:15:21.788Z,50.00
2018-06-17T17:17:51.504Z,50.30
2018-06-17T17:20:20.410Z,49.60
2018-06-17T17:22:51.639Z,49.60
2018-06-17T17:25:22.070Z,49.80
2018-06-17T17:27:51.207Z,50.20
2018-06-17T17:30:20.083Z,49.90
2018-06-17T17:32:53.993Z,50.10
2018-06-17T17:35:28.153Z,49.80
2018-06-17T17:39:05.918Z,50.00
2018-06-17T17:41:35.109Z,50.10
2018-06-17T17:44:03.777Z,50.70
2018-06-17T17:46:37.955Z,51.10
2018-06-17T17:49:07.912Z,51.10
2018-06-17T17:51:36.990Z,51.10
2018-06-17T17:54:06.641Z,51.20
2018-06-17T17:56:35.808Z,50.60
2018-06-17T17:59:04.984Z,50.80
2018-06-17T18:01:34.236Z,51.10
2018-06-17T18:04:03.351Z,51.40
2018-06-17T18:09:03.183Z,51.40
2018-06-17T18:14:01.592Z,51.00
2018-06-17T18:16:30.630Z,51.00
2018-06-17T18:18:59.854Z,51.60
2018-06-17T18:21:29.185Z,51.60
2018-06-17T18:23:58.304Z,51.50
2018-06-17T18:26:32.398Z,51.80
2018-06-17T18:29:06.991Z,52.40
2018-06-17T18:31:41.335Z,52.60
2018-06-17T18:34:15.502Z,51.60
2018-06-17T18:36:45.156Z,51.20
2018-06-17T18:39:14.169Z,51.40
2018-06-17T18:41:43.504Z,51.60
2018-06-17T18:44:12.612Z,51.60
2018-06-17T18:46:41.821Z,51.50
2018-06-17T18:49:11.080Z,51.50
2018-06-17T18:51:41.344Z,52.00
2018-06-17T18:54:10.613Z,51.80
2018-06-17T18:56:39.746Z,51.90
2018-06-17T18:59:09.843Z,52.10
2018-06-17T19:01:38.923Z,52.20
2018-06-17T19:04:08.076Z,51.90
2018-06-17T19:06:37.291Z,52.20
2018-06-17T19:09:13.553Z,53.30
2018-06-17T19:11:48.644Z,54.10
2018-06-17T19:14:23.026Z,54.70
2018-06-17T19:16:57.706Z,55.00
2018-06-17T19:19:27.101Z,55.70
2018-06-17T19:21:56.598Z,56.30
2018-06-17T19:24:25.830Z,57.40
2018-06-17T19:26:54.713Z,58.20
2018-06-17T19:29:24.052Z,59.20
2018-06-17T19:31:54.060Z,59.70
2018-06-17T19:34:23.841Z,59.50
2018-06-17T19:36:53.556Z,60.10
2018-06-17T19:39:22.859Z,59.70
2018-06-17T19:41:53.103Z,59.90
2018-06-17T19:44:22.156Z,60.20
2018-06-17T19:46:51.519Z,60.20
2018-06-17T19:49:25.195Z,60.30
2018-06-17T19:51:59.583Z,60.70
2018-06-17T19:54:33.986Z,60.50
2018-06-17T19:57:08.439Z,60.70
2018-06-17T19:59:42.895Z,61.10
2018-06-17T20:02:11.895Z,61.00
2018-06-17T20:04:42.076Z,61.30
2018-06-17T20:07:11.335Z,61.40
2018-06-17T20:09:40.458Z,61.60
2018-06-17T20:12:09.412Z,61.50
2018-06-17T20:14:38.410Z,61.70
2018-06-17T20:17:07.456Z,61.40
2018-06-17T20:19:36.771Z,61.50
2018-06-17T20:22:06.147Z,61.30
2018-06-17T20:24:35.335Z,60.90
2018-06-17T20:27:04.798Z,59.90
2018-06-17T20:29:35.261Z,59.70
2018-06-17T20:32:09.810Z,59.40
2018-06-17T20:34:44.195Z,59.70
2018-06-17T20:37:19.106Z,59.90
2018-06-17T20:39:57.160Z,60.10
2018-06-17T20:42:32.131Z,60.20
2018-06-17T20:45:01.248Z,60.30
2018-06-17T20:49:59.766Z,60.40
2018-06-17T20:52:29.740Z,60.40
2018-06-17T20:54:58.783Z,60.20
2018-06-17T20:57:28.256Z,60.30
2018-06-17T20:59:57.672Z,60.50
2018-06-17T21:02:26.693Z,60.70
2018-06-17T21:04:55.935Z,60.80
2018-06-17T21:07:26.219Z,60.60
2018-06-17T21:09:55.805Z,60.80
2018-06-17T21:12:24.866Z,60.70
2018-06-17T21:16:12.842Z,60.80
2018-06-17T21:18:47.198Z,60.80
2018-06-17T21:21:21.608Z,60.70
2018-06-17T21:23:56.111Z,61.10
2018-06-17T21:26:30.166Z,61.30
2018-06-17T21:28:59.348Z,61.60
2018-06-17T21:31:28.672Z,61.70
2018-06-17T21:33:57.536Z,61.70
2018-06-17T21:36:27.881Z,62.00
2018-06-17T21:38:58.163Z,62.10
2018-06-17T21:42:46.413Z,62.10
2018-06-17T21:45:15.534Z,62.10
2018-06-17T21:47:44.694Z,62.00
2018-06-17T21:50:14.290Z,62.30
2018-06-17T21:52:43.692Z,62.30
2018-06-17T21:55:12.735Z,62.20
2018-06-17T21:57:41.883Z,62.30
2018-06-17T22:00:11.054Z,62.30
2018-06-17T22:02:42.846Z,62.80
2018-06-17T22:05:12.436Z,62.50
2018-06-17T22:07:46.858Z,62.40
2018-06-17T22:10:22.265Z,62.40
2018-06-17T22:12:56.573Z,62.30
2018-06-17T22:15:31.063Z,62.40
2018-06-17T22:18:00.427Z,62.60
2018-06-17T22:20:29.337Z,62.70
2018-06-17T22:22:58.805Z,63.00
2018-06-17T22:25:28.966Z,63.00
2018-06-17T22:27:58.201Z,63.00
2018-06-17T22:30:27.283Z,63.10
2018-06-17T22:32:56.642Z,63.10
2018-06-17T22:35:25.516Z,63.50
2018-06-17T22:37:54.452Z,64.50
2018-06-17T22:40:23.697Z,64.60
2018-06-17T22:42:53.187Z,64.00
2018-06-17T22:45:22.249Z,64.00
2018-06-17T22:47:56.556Z,63.40
2018-06-17T22:50:25.716Z,63.90
2018-06-17T22:53:05.959Z,64.30
2018-06-17T22:55:35.295Z,63.90
2018-06-17T22:58:09.876Z,63.70
2018-06-17T23:00:44.212Z,63.40
2018-06-17T23:03:18.522Z,63.10
2018-06-17T23:05:53.563Z,63.20
2018-06-17T23:08:28.244Z,63.00
2018-06-17T23:10:57.772Z,63.00
2018-06-17T23:13:27.972Z,63.30
2018-06-17T23:15:58.206Z,63.50
2018-06-17T23:18:27.315Z,63.50
2018-06-17T23:20:56.645Z,63.30
2018-06-17T23:23:25.923Z,62.90
2018-06-17T23:25:55.585Z,63.00
2018-06-17T23:28:25.474Z,62.80
2018-06-17T23:30:54.943Z,62.90
2018-06-17T23:33:24.695Z,63.10
2018-06-17T23:35:54.908Z,63.10
2018-06-17T23:38:25.207Z,63.20
2018-06-17T23:40:56.870Z,63.30
2018-06-17T23:43:27.523Z,63.40
2018-06-17T23:48:36.976Z,64.00
2018-06-17T23:51:12.065Z,63.90
2018-06-17T23:53:46.667Z,63.30
2018-06-17T23:56:18.130Z,63.40
2018-06-17T23:58:48.593Z,63.30
